createdAt,value
2018-09-08T00:49:51.662Z,4.67
2018-09-08T00:54:54.991Z,5.30
2018-09-08T00:59:58.325Z,5.27
2018-09-08T02:31:21.539Z,5.87
2018-09-08T02:36:49.970Z,5.53
2018-09-08T02:41:54.063Z,4.83
2018-09-08T03:50:12.484Z,6.67
2018-09-08T03:55:15.022Z,6.40
2018-09-08T05:03:33.196Z,5.23
2018-09-08T05:08:37.315Z,5.43
2018-09-08T05:13:41.411Z,4.63
2018-09-08T05:18:44.748Z,4.30
2018-09-08T05:23:48.082Z,5.20
2018-09-08T05:28:51.408Z,5.13
2018-09-08T05:34:05.080Z,5.40
2018-09-08T05:39:08.422Z,6.07
2018-09-08T05:44:11.755Z,4.23
2018-09-08T05:49:15.089Z,5.30
2018-09-08T05:54:19.192Z,5.03
2018-09-08T05:59:22.523Z,5.60
2018-09-08T06:04:26.627Z,5.07
2018-09-08T06:09:29.962Z,4.47
2018-09-08T06:14:33.288Z,4.53
2018-09-08T06:19:37.462Z,5.57
2018-09-08T06:24:41.504Z,5.10
2018-09-08T06:29:44.835Z,4.97
2018-09-08T06:34:48.166Z,6.03
2018-09-08T06:39:52.282Z,4.27
2018-09-08T06:44:55.691Z,5.23
2018-09-08T06:49:58.974Z,4.60
2018-09-08T06:55:08.140Z,3.90
2018-09-08T07:00:11.470Z,4.97
2018-09-08T07:05:14.799Z,4.43
2018-09-08T07:10:18.900Z,4.80
2018-09-08T07:15:22.231Z,4.80
2018-09-08T07:20:25.563Z,5.17
2018-09-08T07:25:36.482Z,4.23
2018-09-08T07:30:39.807Z,4.33
2018-09-08T07:35:46.411Z,4.43
2018-09-08T07:40:49.861Z,4.63
2018-09-08T07:45:54.898Z,3.70
2018-09-08T07:50:58.199Z,4.13
2018-09-08T07:56:03.450Z,4.63
2018-09-08T08:01:08.531Z,4.07
2018-09-08T08:06:32.701Z,4.07
2018-09-08T08:11:37.189Z,3.80
2018-09-08T08:16:49.311Z,4.20
2018-09-08T08:21:53.548Z,3.70
2018-09-08T08:26:58.283Z,3.20
2018-09-08T08:32:01.658Z,3.73
2018-09-08T08:37:04.996Z,3.87
2018-09-08T08:42:08.335Z,2.80
2018-09-08T08:47:11.669Z,3.10
2018-09-08T08:58:14.683Z,4.20
2018-09-08T09:03:18.780Z,3.90
2018-09-08T09:08:22.430Z,4.23
2018-09-08T09:13:25.548Z,3.47
2018-09-08T09:18:29.163Z,2.93
2018-09-08T09:29:18.843Z,3.40
2018-09-08T09:34:22.166Z,2.97
2018-09-08T09:39:25.503Z,2.57
2018-09-08T09:44:28.852Z,3.07
2018-09-08T09:49:32.174Z,2.73
2018-09-08T09:54:35.918Z,2.70
2018-09-08T09:59:39.251Z,3.17
2018-09-08T10:04:42.772Z,2.60
2018-09-08T10:09:46.108Z,2.80
2018-09-08T10:14:50.204Z,4.33
2018-09-08T10:19:53.634Z,4.33
2018-09-08T10:25:27.895Z,5.03
2018-09-08T10:30:31.236Z,3.37
2018-09-08T10:35:34.579Z,3.43
2018-09-08T10:40:37.908Z,4.77
2018-09-08T10:45:44.475Z,4.07
2018-09-08T10:50:47.849Z,3.40
2018-09-08T10:55:52.014Z,3.33
2018-09-08T11:00:55.426Z,4.87
2018-09-08T11:06:05.721Z,4.10
2018-09-08T11:11:09.730Z,3.67
2018-09-08T11:16:21.681Z,3.63
2018-09-08T11:21:25.596Z,4.23
2018-09-08T11:26:32.730Z,3.90
2018-09-08T11:31:36.131Z,4.67
2018-09-08T11:36:46.242Z,3.63
2018-09-08T11:41:51.577Z,4.17
2018-09-08T11:46:56.918Z,4.07
2018-09-08T11:52:01.880Z,2.93
2018-09-08T11:57:06.322Z,4.50
2018-09-08T12:02:10.607Z,5.10
2018-09-08T12:07:14.435Z,4.20
2018-09-08T12:12:19.468Z,3.77
2018-09-08T12:17:23.965Z,3.63
2018-09-08T12:22:27.536Z,4.37
2018-09-08T12:27:31.322Z,3.90
2018-09-08T12:32:35.775Z,3.77
2018-09-08T12:37:39.899Z,3.87
2018-09-08T12:42:44.063Z,3.40
2018-09-08T12:47:47.399Z,3.93
2018-09-08T12:52:50.738Z,3.13
2018-09-08T12:57:55.115Z,3.97
2018-09-08T13:02:58.467Z,3.40
2018-09-08T13:08:01.844Z,3.97
2018-09-08T13:13:05.171Z,3.23
2018-09-08T13:18:08.507Z,2.80
2018-09-08T13:23:11.834Z,3.57
2018-09-08T13:28:15.170Z,3.50
2018-09-08T13:33:19.263Z,3.43
2018-09-08T13:38:22.602Z,2.60
2018-09-08T13:43:26.704Z,3.20
2018-09-08T13:48:30.035Z,3.00
2018-09-08T13:53:33.367Z,3.27
2018-09-08T13:58:37.479Z,2.10
2018-09-08T14:03:53.339Z,1.90
2018-09-08T14:08:56.672Z,2.73
2018-09-08T14:14:00.399Z,2.43
2018-09-08T14:19:04.035Z,2.87
2018-09-08T14:24:07.370Z,3.13
2018-09-08T14:29:11.464Z,2.90
2018-09-08T14:34:14.787Z,2.97
2018-09-08T14:39:18.122Z,3.07
2018-09-08T14:44:21.465Z,2.33
2018-09-08T14:49:24.803Z,2.67
2018-09-08T14:54:28.128Z,2.37
2018-09-08T14:59:31.455Z,2.10
2018-09-08T15:04:34.825Z,2.53
2018-09-08T15:09:38.154Z,2.70
2018-09-08T15:14:41.475Z,4.90
2018-09-08T15:19:44.818Z,2.43
2018-09-08T15:24:48.150Z,3.60
2018-09-08T15:29:52.235Z,2.80
2018-09-08T15:34:55.606Z,1.67
2018-09-08T15:39:58.990Z,2.73
2018-09-08T15:45:02.287Z,2.37
2018-09-08T15:50:05.621Z,2.60
2018-09-08T15:55:09.711Z,2.47
2018-09-08T16:00:13.054Z,2.22
2018-09-08T16:05:22.259Z,2.80
2018-09-08T16:10:25.587Z,2.10
2018-09-08T16:15:39.927Z,2.70
2018-09-08T16:20:43.254Z,2.58
2018-09-08T16:25:46.584Z,3.17
2018-09-08T16:30:49.919Z,2.70
2018-09-08T16:35:56.587Z,2.50
2018-09-08T16:40:59.920Z,2.28
2018-09-08T16:46:03.248Z,2.97
2018-09-08T16:51:07.844Z,2.60
2018-09-08T16:56:11.571Z,2.42
2018-09-08T17:01:14.910Z,2.07
2018-09-08T17:06:31.869Z,2.57
2018-09-08T17:11:36.163Z,2.50
2018-09-08T17:22:15.985Z,2.40
2018-09-08T17:27:19.309Z,2.30
2018-09-08T17:32:23.488Z,2.63
2018-09-08T17:37:26.768Z,2.87
2018-09-08T17:42:30.855Z,2.60
2018-09-08T17:47:34.193Z,3.13
2018-09-08T17:52:41.231Z,4.20
2018-09-08T17:57:44.571Z,4.73
2018-09-08T18:02:48.200Z,4.20
2018-09-08T18:07:51.756Z,4.73
2018-09-08T18:12:55.845Z,4.67
2018-09-08T18:17:59.167Z,3.77
2018-09-08T18:23:02.519Z,4.23
2018-09-08T18:28:05.843Z,3.73
2018-09-08T18:33:09.172Z,3.60
2018-09-08T18:38:12.499Z,3.90
2018-09-08T18:43:15.830Z,4.00
2018-09-08T18:48:19.981Z,4.23
2018-09-08T18:53:23.295Z,6.07
2018-09-08T18:58:27.396Z,4.70
2018-09-08T19:03:30.723Z,3.90
2018-09-08T19:08:34.065Z,3.97
2018-09-08T19:13:38.170Z,5.13
2018-09-08T19:18:41.508Z,5.53
2018-09-08T19:23:45.595Z,7.30
2018-09-08T19:28:48.938Z,5.83
2018-09-08T19:33:53.035Z,6.70
2018-09-08T19:38:56.367Z,6.23
2018-09-08T19:43:59.702Z,6.93
2018-09-08T19:49:03.821Z,8.27
2018-09-08T19:54:07.923Z,9.90
2018-09-08T19:59:11.250Z,9.47
2018-09-08T20:04:14.596Z,10.37
2018-09-08T20:09:17.990Z,10.33
2018-09-08T20:14:21.310Z,10.03
2018-09-08T20:19:25.425Z,12.37
2018-09-08T20:24:28.759Z,10.47
2018-09-08T20:29:32.095Z,9.70
2018-09-08T20:34:35.417Z,7.87
2018-09-08T20:39:38.747Z,7.50
2018-09-08T20:44:42.070Z,7.37
2018-09-08T20:49:45.407Z,7.63
2018-09-08T20:54:49.511Z,10.93
2018-09-08T20:59:52.860Z,9.83
2018-09-08T21:05:09.347Z,11.60
2018-09-08T21:10:12.688Z,8.57
2018-09-08T21:15:16.789Z,9.07
2018-09-08T21:20:20.144Z,8.10
2018-09-08T21:25:29.948Z,6.73
2018-09-08T21:30:33.320Z,6.00
2018-09-08T21:35:38.442Z,5.67
2018-09-08T21:40:41.787Z,6.50
2018-09-08T21:45:45.898Z,10.27
2018-09-08T21:50:49.994Z,7.00
2018-09-08T21:55:53.335Z,5.80
2018-09-08T22:00:56.690Z,5.80
2018-09-08T22:06:00.018Z,5.80
2018-09-08T22:11:03.352Z,5.63
2018-09-08T22:16:06.688Z,4.90
2018-09-08T22:21:10.019Z,5.50
2018-09-08T22:26:21.030Z,5.70
2018-09-08T22:31:24.361Z,4.30
2018-09-08T22:36:38.412Z,5.10
2018-09-08T22:41:41.746Z,5.03
2018-09-08T22:46:45.071Z,5.20
2018-09-08T22:51:48.416Z,5.10
2018-09-08T22:56:52.541Z,4.70
2018-09-08T23:01:58.877Z,4.93
2018-09-08T23:07:11.735Z,5.10
2018-09-08T23:12:15.069Z,5.10
